sensor_id;sensor_type;location;lat;lon;timestamp;temperature;humidity
49489;SHT31;35382;51.484;11.476;2022-07-22T00:00:15;19.27;78.95
49489;SHT31;35382;51.484;11.476;2022-07-22T00:01:56;19.28;78.60
49489;SHT31;35382;51.484;11.476;2022-07-22T00:03:37;19.38;78.41
49489;SHT31;35382;51.484;11.476;2022-07-22T00:05:18;19.38;78.13
49489;SHT31;35382;51.484;11.476;2022-07-22T00:06:59;19.32;78.12
49489;SHT31;35382;51.484;11.476;2022-07-22T00:08:40;19.35;77.85
49489;SHT31;35382;51.484;11.476;2022-07-22T00:10:21;19.34;78.35
49489;SHT31;35382;51.484;11.476;2022-07-22T00:12:02;19.32;78.11
49489;SHT31;35382;51.484;11.476;2022-07-22T00:13:43;19.28;78.35
49489;SHT31;35382;51.484;11.476;2022-07-22T00:15:25;19.32;78.14
49489;SHT31;35382;51.484;11.476;2022-07-22T00:17:06;19.32;77.99
49489;SHT31;35382;51.484;11.476;2022-07-22T00:18:48;19.24;78.59
49489;SHT31;35382;51.484;11.476;2022-07-22T00:20:29;19.27;78.90
49489;SHT31;35382;51.484;11.476;2022-07-22T00:22:10;19.17;79.57
49489;SHT31;35382;51.484;11.476;2022-07-22T00:23:50;18.94;80.52
49489;SHT31;35382;51.484;11.476;2022-07-22T00:25:31;18.74;81.11
49489;SHT31;35382;51.484;11.476;2022-07-22T00:27:12;18.83;81.05
49489;SHT31;35382;51.484;11.476;2022-07-22T00:28:53;18.67;81.48
49489;SHT31;35382;51.484;11.476;2022-07-22T00:30:35;18.56;82.14
49489;SHT31;35382;51.484;11.476;2022-07-22T00:32:16;18.54;82.16
49489;SHT31;35382;51.484;11.476;2022-07-22T00:33:59;18.63;81.64
49489;SHT31;35382;51.484;11.476;2022-07-22T00:35:41;18.73;81.36
49489;SHT31;35382;51.484;11.476;2022-07-22T00:37:22;18.51;82.09
49489;SHT31;35382;51.484;11.476;2022-07-22T00:39:03;18.67;81.50
49489;SHT31;35382;51.484;11.476;2022-07-22T00:40:44;18.47;82.04
49489;SHT31;35382;51.484;11.476;2022-07-22T00:42:25;18.47;82.07
49489;SHT31;35382;51.484;11.476;2022-07-22T00:44:08;18.36;82.27
49489;SHT31;35382;51.484;11.476;2022-07-22T00:45:49;18.33;82.31
49489;SHT31;35382;51.484;11.476;2022-07-22T00:47:30;18.34;82.11
49489;SHT31;35382;51.484;11.476;2022-07-22T00:49:11;18.23;82.30
49489;SHT31;35382;51.484;11.476;2022-07-22T00:50:52;18.39;81.53
49489;SHT31;35382;51.484;11.476;2022-07-22T00:52:33;18.27;81.48
49489;SHT31;35382;51.484;11.476;2022-07-22T00:54:14;18.30;81.20
49489;SHT31;35382;51.484;11.476;2022-07-22T00:55:55;18.40;80.81
49489;SHT31;35382;51.484;11.476;2022-07-22T00:57:38;18.34;80.75
49489;SHT31;35382;51.484;11.476;2022-07-22T00:59:19;18.34;80.40
49489;SHT31;35382;51.484;11.476;2022-07-22T01:01:00;18.34;80.64
49489;SHT31;35382;51.484;11.476;2022-07-22T01:02:41;18.30;80.55
49489;SHT31;35382;51.484;11.476;2022-07-22T01:04:22;18.39;80.04
49489;SHT31;35382;51.484;11.476;2022-07-22T01:06:03;18.33;80.27
49489;SHT31;35382;51.484;11.476;2022-07-22T01:07:44;18.25;80.62
49489;SHT31;35382;51.484;11.476;2022-07-22T01:09:25;18.19;80.75
49489;SHT31;35382;51.484;11.476;2022-07-22T01:11:11;18.17;80.95
49489;SHT31;35382;51.484;11.476;2022-07-22T01:12:52;18.26;80.78
49489;SHT31;35382;51.484;11.476;2022-07-22T01:14:33;18.17;80.64
49489;SHT31;35382;51.484;11.476;2022-07-22T01:16:15;18.19;80.75
49489;SHT31;35382;51.484;11.476;2022-07-22T01:17:57;18.16;80.81
49489;SHT31;35382;51.484;11.476;2022-07-22T01:19:38;18.19;80.68
49489;SHT31;35382;51.484;11.476;2022-07-22T01:21:19;18.20;80.56
49489;SHT31;35382;51.484;11.476;2022-07-22T01:23:00;18.22;80.81
49489;SHT31;35382;51.484;11.476;2022-07-22T01:24:41;18.25;80.67
49489;SHT31;35382;51.484;11.476;2022-07-22T01:26:23;18.22;80.70
49489;SHT31;35382;51.484;11.476;2022-07-22T01:28:05;18.22;80.77
49489;SHT31;35382;51.484;11.476;2022-07-22T01:29:46;18.25;80.64
49489;SHT31;35382;51.484;11.476;2022-07-22T01:31:27;18.20;80.89
49489;SHT31;35382;51.484;11.476;2022-07-22T01:33:08;18.19;80.92
49489;SHT31;35382;51.484;11.476;2022-07-22T01:34:50;18.22;81.02
49489;SHT31;35382;51.484;11.476;2022-07-22T01:36:31;18.23;80.93
49489;SHT31;35382;51.484;11.476;2022-07-22T01:38:13;18.22;80.98
49489;SHT31;35382;51.484;11.476;2022-07-22T01:39:54;18.25;81.07
49489;SHT31;35382;51.484;11.476;2022-07-22T01:41:35;18.30;80.98
49489;SHT31;35382;51.484;11.476;2022-07-22T01:43:17;18.30;80.91
49489;SHT31;35382;51.484;11.476;2022-07-22T01:45:03;18.19;81.19
49489;SHT31;35382;51.484;11.476;2022-07-22T01:46:44;18.34;80.53
49489;SHT31;35382;51.484;11.476;2022-07-22T01:48:26;18.32;80.82
49489;SHT31;35382;51.484;11.476;2022-07-22T01:50:09;18.26;80.98
49489;SHT31;35382;51.484;11.476;2022-07-22T01:51:50;18.26;81.10
49489;SHT31;35382;51.484;11.476;2022-07-22T01:53:32;18.14;81.57
49489;SHT31;35382;51.484;11.476;2022-07-22T01:55:14;18.13;81.72
49489;SHT31;35382;51.484;11.476;2022-07-22T01:56:55;18.20;81.45
49489;SHT31;35382;51.484;11.476;2022-07-22T01:58:36;18.17;81.63
49489;SHT31;35382;51.484;11.476;2022-07-22T02:00:20;18.13;81.81
49489;SHT31;35382;51.484;11.476;2022-07-22T02:02:01;18.10;81.79
49489;SHT31;35382;51.484;11.476;2022-07-22T02:03:42;18.06;82.02
49489;SHT31;35382;51.484;11.476;2022-07-22T02:05:23;18.02;82.18
49489;SHT31;35382;51.484;11.476;2022-07-22T02:07:05;18.10;81.95
49489;SHT31;35382;51.484;11.476;2022-07-22T02:08:47;18.12;82.16
49489;SHT31;35382;51.484;11.476;2022-07-22T02:10:29;17.97;82.59
49489;SHT31;35382;51.484;11.476;2022-07-22T02:12:11;17.97;82.55
49489;SHT31;35382;51.484;11.476;2022-07-22T02:13:58;17.95;82.58
49489;SHT31;35382;51.484;11.476;2022-07-22T02:15:40;17.82;83.02
49489;SHT31;35382;51.484;11.476;2022-07-22T02:17:21;17.89;82.92
49489;SHT31;35382;51.484;11.476;2022-07-22T02:19:02;17.96;82.62
49489;SHT31;35382;51.484;11.476;2022-07-22T02:20:44;17.78;83.17
49489;SHT31;35382;51.484;11.476;2022-07-22T02:22:25;17.86;82.93
49489;SHT31;35382;51.484;11.476;2022-07-22T02:24:06;17.79;83.24
49489;SHT31;35382;51.484;11.476;2022-07-22T02:25:47;17.99;82.61
49489;SHT31;35382;51.484;11.476;2022-07-22T02:27:28;17.87;82.73
49489;SHT31;35382;51.484;11.476;2022-07-22T02:29:10;17.72;83.32
49489;SHT31;35382;51.484;11.476;2022-07-22T02:30:51;17.78;83.00
49489;SHT31;35382;51.484;11.476;2022-07-22T02:32:33;17.62;83.32
49489;SHT31;35382;51.484;11.476;2022-07-22T02:34:13;17.41;84.09
49489;SHT31;35382;51.484;11.476;2022-07-22T02:35:55;17.51;83.86
49489;SHT31;35382;51.484;11.476;2022-07-22T02:37:37;17.42;84.48
49489;SHT31;35382;51.484;11.476;2022-07-22T02:39:18;17.56;83.93
49489;SHT31;35382;51.484;11.476;2022-07-22T02:40:59;17.39;84.03
49489;SHT31;35382;51.484;11.476;2022-07-22T02:42:40;17.35;84.92
49489;SHT31;35382;51.484;11.476;2022-07-22T02:44:21;17.49;84.13
49489;SHT31;35382;51.484;11.476;2022-07-22T02:46:02;17.51;84.08
49489;SHT31;35382;51.484;11.476;2022-07-22T02:47:53;17.48;84.19
49489;SHT31;35382;51.484;11.476;2022-07-22T02:49:35;17.52;84.15
49489;SHT31;35382;51.484;11.476;2022-07-22T02:51:16;17.59;83.34
49489;SHT31;35382;51.484;11.476;2022-07-22T02:52:57;17.43;83.95
49489;SHT31;35382;51.484;11.476;2022-07-22T02:54:41;17.45;83.90
49489;SHT31;35382;51.484;11.476;2022-07-22T02:56:22;17.38;84.44
49489;SHT31;35382;51.484;11.476;2022-07-22T02:58:05;17.45;84.31
49489;SHT31;35382;51.484;11.476;2022-07-22T02:59:46;17.32;84.44
49489;SHT31;35382;51.484;11.476;2022-07-22T03:01:28;17.41;84.04
49489;SHT31;35382;51.484;11.476;2022-07-22T03:03:12;17.34;84.67
49489;SHT31;35382;51.484;11.476;2022-07-22T03:04:53;17.32;85.06
49489;SHT31;35382;51.484;11.476;2022-07-22T03:06:34;17.46;84.93
49489;SHT31;35382;51.484;11.476;2022-07-22T03:08:20;17.58;84.60
49489;SHT31;35382;51.484;11.476;2022-07-22T03:10:02;17.66;84.26
49489;SHT31;35382;51.484;11.476;2022-07-22T03:11:45;17.65;84.27
49489;SHT31;35382;51.484;11.476;2022-07-22T03:13:26;17.71;84.40
49489;SHT31;35382;51.484;11.476;2022-07-22T03:15:08;17.72;84.29
49489;SHT31;35382;51.484;11.476;2022-07-22T03:16:51;17.86;83.86
49489;SHT31;35382;51.484;11.476;2022-07-22T03:18:31;17.79;84.07
49489;SHT31;35382;51.484;11.476;2022-07-22T03:20:14;17.93;83.44
49489;SHT31;35382;51.484;11.476;2022-07-22T03:21:56;17.95;83.66
49489;SHT31;35382;51.484;11.476;2022-07-22T03:23:37;17.99;83.15
49489;SHT31;35382;51.484;11.476;2022-07-22T03:25:18;18.13;82.79
49489;SHT31;35382;51.484;11.476;2022-07-22T03:26:59;18.10;83.10
49489;SHT31;35382;51.484;11.476;2022-07-22T03:28:40;18.17;82.51
49489;SHT31;35382;51.484;11.476;2022-07-22T03:30:21;18.12;82.90
49489;SHT31;35382;51.484;11.476;2022-07-22T03:32:02;18.16;82.78
49489;SHT31;35382;51.484;11.476;2022-07-22T03:33:58;18.14;83.05
49489;SHT31;35382;51.484;11.476;2022-07-22T03:35:43;18.20;83.00
49489;SHT31;35382;51.484;11.476;2022-07-22T03:37:24;18.29;82.69
49489;SHT31;35382;51.484;11.476;2022-07-22T03:39:05;18.30;82.73
49489;SHT31;35382;51.484;11.476;2022-07-22T03:40:46;18.27;83.12
49489;SHT31;35382;51.484;11.476;2022-07-22T03:42:27;18.30;82.90
49489;SHT31;35382;51.484;11.476;2022-07-22T03:44:08;18.30;83.09
49489;SHT31;35382;51.484;11.476;2022-07-22T03:45:49;18.29;82.84
49489;SHT31;35382;51.484;11.476;2022-07-22T03:47:30;18.27;83.02
49489;SHT31;35382;51.484;11.476;2022-07-22T03:49:12;18.17;83.48
49489;SHT31;35382;51.484;11.476;2022-07-22T03:50:53;18.12;83.51
49489;SHT31;35382;51.484;11.476;2022-07-22T03:52:34;18.16;83.78
49489;SHT31;35382;51.484;11.476;2022-07-22T03:54:17;18.23;83.33
49489;SHT31;35382;51.484;11.476;2022-07-22T03:55:59;18.19;83.81
49489;SHT31;35382;51.484;11.476;2022-07-22T03:57:40;18.07;83.90
49489;SHT31;35382;51.484;11.476;2022-07-22T03:59:27;18.25;83.50
49489;SHT31;35382;51.484;11.476;2022-07-22T04:01:08;18.37;82.92
49489;SHT31;35382;51.484;11.476;2022-07-22T04:02:49;18.33;83.48
49489;SHT31;35382;51.484;11.476;2022-07-22T04:04:42;18.43;82.75
49489;SHT31;35382;51.484;11.476;2022-07-22T04:06:23;18.46;82.77
49489;SHT31;35382;51.484;11.476;2022-07-22T04:08:12;18.44;82.82
49489;SHT31;35382;51.484;11.476;2022-07-22T04:09:53;18.44;82.81
49489;SHT31;35382;51.484;11.476;2022-07-22T04:11:45;18.50;82.49
49489;SHT31;35382;51.484;11.476;2022-07-22T04:13:27;18.41;83.05
49489;SHT31;35382;51.484;11.476;2022-07-22T04:15:10;18.41;83.06
49489;SHT31;35382;51.484;11.476;2022-07-22T04:16:51;18.51;82.48
49489;SHT31;35382;51.484;11.476;2022-07-22T04:18:33;18.57;82.47
49489;SHT31;35382;51.484;11.476;2022-07-22T04:20:14;18.54;82.80
49489;SHT31;35382;51.484;11.476;2022-07-22T04:22:15;18.70;82.12
49489;SHT31;35382;51.484;11.476;2022-07-22T04:23:56;18.93;81.43
49489;SHT31;35382;51.484;11.476;2022-07-22T04:25:42;18.90;81.52
49489;SHT31;35382;51.484;11.476;2022-07-22T04:27:23;18.90;81.49
49489;SHT31;35382;51.484;11.476;2022-07-22T04:29:05;19.29;80.58
49489;SHT31;35382;51.484;11.476;2022-07-22T04:30:45;19.18;80.57
49489;SHT31;35382;51.484;11.476;2022-07-22T04:32:27;19.68;79.04
49489;SHT31;35382;51.484;11.476;2022-07-22T04:34:08;19.83;78.57
49489;SHT31;35382;51.484;11.476;2022-07-22T04:35:49;19.55;79.22
49489;SHT31;35382;51.484;11.476;2022-07-22T04:37:32;19.69;79.22
49489;SHT31;35382;51.484;11.476;2022-07-22T04:39:14;19.47;79.69
49489;SHT31;35382;51.484;11.476;2022-07-22T04:41:02;19.28;80.97
49489;SHT31;35382;51.484;11.476;2022-07-22T04:42:43;19.12;81.61
49489;SHT31;35382;51.484;11.476;2022-07-22T04:44:26;19.07;81.72
49489;SHT31;35382;51.484;11.476;2022-07-22T04:46:07;18.87;81.98
49489;SHT31;35382;51.484;11.476;2022-07-22T04:47:52;18.85;82.24
49489;SHT31;35382;51.484;11.476;2022-07-22T04:49:33;18.83;82.41
49489;SHT31;35382;51.484;11.476;2022-07-22T04:51:14;18.91;82.50
49489;SHT31;35382;51.484;11.476;2022-07-22T04:52:59;18.88;82.45
49489;SHT31;35382;51.484;11.476;2022-07-22T04:54:40;18.78;82.47
49489;SHT31;35382;51.484;11.476;2022-07-22T04:56:22;18.94;81.90
49489;SHT31;35382;51.484;11.476;2022-07-22T04:58:04;19.89;78.99
49489;SHT31;35382;51.484;11.476;2022-07-22T04:59:45;20.26;77.70
49489;SHT31;35382;51.484;11.476;2022-07-22T05:01:27;20.29;76.74
49489;SHT31;35382;51.484;11.476;2022-07-22T05:03:09;20.52;76.63
49489;SHT31;35382;51.484;11.476;2022-07-22T05:04:49;20.67;76.13
49489;SHT31;35382;51.484;11.476;2022-07-22T05:06:30;21.06;74.66
49489;SHT31;35382;51.484;11.476;2022-07-22T05:08:12;20.40;76.77
49489;SHT31;35382;51.484;11.476;2022-07-22T05:09:54;20.53;77.05
49489;SHT31;35382;51.484;11.476;2022-07-22T05:11:35;20.69;76.37
49489;SHT31;35382;51.484;11.476;2022-07-22T05:13:17;20.26;77.13
49489;SHT31;35382;51.484;11.476;2022-07-22T05:14:58;20.64;76.42
49489;SHT31;35382;51.484;11.476;2022-07-22T05:16:39;20.56;76.76
49489;SHT31;35382;51.484;11.476;2022-07-22T05:18:21;20.33;76.77
49489;SHT31;35382;51.484;11.476;2022-07-22T05:20:03;20.63;77.01
49489;SHT31;35382;51.484;11.476;2022-07-22T05:21:45;20.80;75.85
49489;SHT31;35382;51.484;11.476;2022-07-22T05:23:26;20.90;75.80
49489;SHT31;35382;51.484;11.476;2022-07-22T05:25:07;21.04;74.88
49489;SHT31;35382;51.484;11.476;2022-07-22T05:26:50;21.27;74.23
49489;SHT31;35382;51.484;11.476;2022-07-22T05:28:31;21.42;74.14
49489;SHT31;35382;51.484;11.476;2022-07-22T05:30:12;20.74;75.19
49489;SHT31;35382;51.484;11.476;2022-07-22T05:31:53;20.96;75.13
49489;SHT31;35382;51.484;11.476;2022-07-22T05:33:34;20.43;75.94
49489;SHT31;35382;51.484;11.476;2022-07-22T05:35:21;20.56;75.97
49489;SHT31;35382;51.484;11.476;2022-07-22T05:37:02;20.63;75.48
49489;SHT31;35382;51.484;11.476;2022-07-22T05:38:43;20.36;75.39
49489;SHT31;35382;51.484;11.476;2022-07-22T05:40:24;20.69;75.71
49489;SHT31;35382;51.484;11.476;2022-07-22T05:42:06;20.86;74.98
49489;SHT31;35382;51.484;11.476;2022-07-22T05:43:47;20.83;74.80
49489;SHT31;35382;51.484;11.476;2022-07-22T05:45:28;20.88;74.43
49489;SHT31;35382;51.484;11.476;2022-07-22T05:47:10;20.46;75.02
49489;SHT31;35382;51.484;11.476;2022-07-22T05:48:51;20.72;75.28
49489;SHT31;35382;51.484;11.476;2022-07-22T05:50:32;20.52;74.92
49489;SHT31;35382;51.484;11.476;2022-07-22T05:52:13;20.70;74.43
49489;SHT31;35382;51.484;11.476;2022-07-22T05:53:55;20.86;74.15
49489;SHT31;35382;51.484;11.476;2022-07-22T05:55:36;20.59;74.22
49489;SHT31;35382;51.484;11.476;2022-07-22T05:57:17;20.72;74.25
49489;SHT31;35382;51.484;11.476;2022-07-22T05:59:00;20.62;73.91
49489;SHT31;35382;51.484;11.476;2022-07-22T06:00:41;20.72;74.76
49489;SHT31;35382;51.484;11.476;2022-07-22T06:02:22;20.62;74.69
49489;SHT31;35382;51.484;11.476;2022-07-22T06:04:04;20.52;74.51
49489;SHT31;35382;51.484;11.476;2022-07-22T06:05:45;20.67;75.27
49489;SHT31;35382;51.484;11.476;2022-07-22T06:07:27;20.59;74.83
49489;SHT31;35382;51.484;11.476;2022-07-22T06:09:13;20.52;75.69
49489;SHT31;35382;51.484;11.476;2022-07-22T06:10:56;20.59;75.14
49489;SHT31;35382;51.484;11.476;2022-07-22T06:12:38;20.86;74.80
49489;SHT31;35382;51.484;11.476;2022-07-22T06:14:19;20.88;74.02
49489;SHT31;35382;51.484;11.476;2022-07-22T06:16:00;20.64;75.47
49489;SHT31;35382;51.484;11.476;2022-07-22T06:17:42;20.46;75.42
49489;SHT31;35382;51.484;11.476;2022-07-22T06:19:24;20.32;75.48
49489;SHT31;35382;51.484;11.476;2022-07-22T06:21:05;20.43;75.62
49489;SHT31;35382;51.484;11.476;2022-07-22T06:22:48;20.63;76.06
49489;SHT31;35382;51.484;11.476;2022-07-22T06:24:29;21.44;73.79
49489;SHT31;35382;51.484;11.476;2022-07-22T06:26:11;21.06;74.03
49489;SHT31;35382;51.484;11.476;2022-07-22T06:27:52;20.77;74.44
49489;SHT31;35382;51.484;11.476;2022-07-22T06:29:33;20.59;75.70
49489;SHT31;35382;51.484;11.476;2022-07-22T06:31:14;20.32;75.51
49489;SHT31;35382;51.484;11.476;2022-07-22T06:32:55;20.25;75.58
49489;SHT31;35382;51.484;11.476;2022-07-22T06:34:36;20.33;75.19
49489;SHT31;35382;51.484;11.476;2022-07-22T06:36:19;20.64;74.59
49489;SHT31;35382;51.484;11.476;2022-07-22T06:38:00;20.53;74.47
49489;SHT31;35382;51.484;11.476;2022-07-22T06:39:42;20.57;74.72
49489;SHT31;35382;51.484;11.476;2022-07-22T06:41:29;20.33;74.44
49489;SHT31;35382;51.484;11.476;2022-07-22T06:43:30;20.34;74.82
49489;SHT31;35382;51.484;11.476;2022-07-22T06:45:30;20.23;74.71
49489;SHT31;35382;51.484;11.476;2022-07-22T06:47:19;20.00;75.60
49489;SHT31;35382;51.484;11.476;2022-07-22T06:49:00;20.02;75.81
49489;SHT31;35382;51.484;11.476;2022-07-22T06:50:43;20.32;75.99
49489;SHT31;35382;51.484;11.476;2022-07-22T06:52:30;20.20;74.71
49489;SHT31;35382;51.484;11.476;2022-07-22T06:54:13;20.23;75.25
49489;SHT31;35382;51.484;11.476;2022-07-22T06:55:54;20.18;74.93
49489;SHT31;35382;51.484;11.476;2022-07-22T06:57:35;20.18;74.63
49489;SHT31;35382;51.484;11.476;2022-07-22T06:59:16;20.15;75.25
49489;SHT31;35382;51.484;11.476;2022-07-22T07:00:58;20.30;74.58
49489;SHT31;35382;51.484;11.476;2022-07-22T07:02:50;20.59;73.93
49489;SHT31;35382;51.484;11.476;2022-07-22T07:04:31;20.41;74.51
49489;SHT31;35382;51.484;11.476;2022-07-22T07:06:12;20.50;74.27
49489;SHT31;35382;51.484;11.476;2022-07-22T07:08:11;20.44;74.66
49489;SHT31;35382;51.484;11.476;2022-07-22T07:09:52;20.33;74.88
49489;SHT31;35382;51.484;11.476;2022-07-22T07:11:52;20.13;74.98
49489;SHT31;35382;51.484;11.476;2022-07-22T07:13:53;20.13;75.25
49489;SHT31;35382;51.484;11.476;2022-07-22T07:15:34;20.15;74.84
49489;SHT31;35382;51.484;11.476;2022-07-22T07:17:20;20.10;75.20
49489;SHT31;35382;51.484;11.476;2022-07-22T07:19:01;20.10;75.32
49489;SHT31;35382;51.484;11.476;2022-07-22T07:20:42;20.13;75.06
49489;SHT31;35382;51.484;11.476;2022-07-22T07:22:24;20.05;75.15
49489;SHT31;35382;51.484;11.476;2022-07-22T07:24:06;20.18;75.81
49489;SHT31;35382;51.484;11.476;2022-07-22T07:25:47;20.29;75.24
49489;SHT31;35382;51.484;11.476;2022-07-22T07:27:28;20.32;75.07
49489;SHT31;35382;51.484;11.476;2022-07-22T07:29:10;20.25;75.00
49489;SHT31;35382;51.484;11.476;2022-07-22T07:30:55;20.34;74.96
49489;SHT31;35382;51.484;11.476;2022-07-22T07:32:37;20.46;73.90
49489;SHT31;35382;51.484;11.476;2022-07-22T07:34:18;20.40;74.52
49489;SHT31;35382;51.484;11.476;2022-07-22T07:35:59;20.33;74.42
49489;SHT31;35382;51.484;11.476;2022-07-22T07:37:54;20.46;73.60
49489;SHT31;35382;51.484;11.476;2022-07-22T07:39:35;20.54;73.72
49489;SHT31;35382;51.484;11.476;2022-07-22T07:41:17;20.62;73.32
49489;SHT31;35382;51.484;11.476;2022-07-22T07:42:59;20.33;73.51
49489;SHT31;35382;51.484;11.476;2022-07-22T07:44:40;20.20;74.10
49489;SHT31;35382;51.484;11.476;2022-07-22T07:46:21;20.29;74.43
49489;SHT31;35382;51.484;11.476;2022-07-22T07:48:03;20.26;74.53
49489;SHT31;35382;51.484;11.476;2022-07-22T07:49:44;20.32;74.13
49489;SHT31;35382;51.484;11.476;2022-07-22T07:51:26;20.33;74.15
49489;SHT31;35382;51.484;11.476;2022-07-22T07:53:07;20.32;74.41
49489;SHT31;35382;51.484;11.476;2022-07-22T07:54:48;20.37;74.24
49489;SHT31;35382;51.484;11.476;2022-07-22T07:56:30;20.37;73.77
49489;SHT31;35382;51.484;11.476;2022-07-22T07:58:11;20.39;74.68
49489;SHT31;35382;51.484;11.476;2022-07-22T07:59:52;20.40;74.07
49489;SHT31;35382;51.484;11.476;2022-07-22T08:01:33;20.43;73.75
49489;SHT31;35382;51.484;11.476;2022-07-22T08:03:15;20.43;73.98
49489;SHT31;35382;51.484;11.476;2022-07-22T08:04:56;20.60;73.26
49489;SHT31;35382;51.484;11.476;2022-07-22T08:06:37;20.64;73.51
49489;SHT31;35382;51.484;11.476;2022-07-22T08:08:19;20.73;73.26
49489;SHT31;35382;51.484;11.476;2022-07-22T08:10:02;20.64;73.17
49489;SHT31;35382;51.484;11.476;2022-07-22T08:12:03;21.00;71.99
49489;SHT31;35382;51.484;11.476;2022-07-22T08:14:03;20.87;72.43
49489;SHT31;35382;51.484;11.476;2022-07-22T08:16:10;21.06;72.32
49489;SHT31;35382;51.484;11.476;2022-07-22T08:17:53;21.17;72.64
49489;SHT31;35382;51.484;11.476;2022-07-22T08:19:34;20.86;72.06
49489;SHT31;35382;51.484;11.476;2022-07-22T08:21:15;20.88;72.20
49489;SHT31;35382;51.484;11.476;2022-07-22T08:23:16;21.20;72.59
49489;SHT31;35382;51.484;11.476;2022-07-22T08:24:59;20.83;72.52
49489;SHT31;35382;51.484;11.476;2022-07-22T08:26:43;20.88;72.97
49489;SHT31;35382;51.484;11.476;2022-07-22T08:28:24;20.91;73.23
49489;SHT31;35382;51.484;11.476;2022-07-22T08:30:06;21.00;72.65
49489;SHT31;35382;51.484;11.476;2022-07-22T08:31:48;21.11;72.57
49489;SHT31;35382;51.484;11.476;2022-07-22T08:33:31;21.45;71.95
49489;SHT31;35382;51.484;11.476;2022-07-22T08:35:12;21.55;71.02
49489;SHT31;35382;51.484;11.476;2022-07-22T08:36:53;21.84;71.53
49489;SHT31;35382;51.484;11.476;2022-07-22T08:38:35;21.78;70.24
49489;SHT31;35382;51.484;11.476;2022-07-22T08:40:17;21.69;70.54
49489;SHT31;35382;51.484;11.476;2022-07-22T08:41:58;22.39;69.00
49489;SHT31;35382;51.484;11.476;2022-07-22T08:43:40;22.12;70.32
49489;SHT31;35382;51.484;11.476;2022-07-22T08:45:23;22.06;70.28
49489;SHT31;35382;51.484;11.476;2022-07-22T08:47:04;22.35;69.44
49489;SHT31;35382;51.484;11.476;2022-07-22T08:49:15;22.06;69.84
49489;SHT31;35382;51.484;11.476;2022-07-22T08:51:14;21.92;69.77
49489;SHT31;35382;51.484;11.476;2022-07-22T08:53:12;22.46;68.88
49489;SHT31;35382;51.484;11.476;2022-07-22T08:54:55;22.49;67.92
49489;SHT31;35382;51.484;11.476;2022-07-22T08:56:37;22.72;68.30
49489;SHT31;35382;51.484;11.476;2022-07-22T08:58:20;22.36;69.10
49489;SHT31;35382;51.484;11.476;2022-07-22T09:00:01;22.25;68.61
49489;SHT31;35382;51.484;11.476;2022-07-22T09:02:07;22.48;68.21
49489;SHT31;35382;51.484;11.476;2022-07-22T09:03:53;22.01;68.90
49489;SHT31;35382;51.484;11.476;2022-07-22T09:05:37;22.08;68.76
49489;SHT31;35382;51.484;11.476;2022-07-22T09:07:46;22.22;68.82
49489;SHT31;35382;51.484;11.476;2022-07-22T09:09:35;22.06;69.42
49489;SHT31;35382;51.484;11.476;2022-07-22T09:11:44;21.65;70.36
49489;SHT31;35382;51.484;11.476;2022-07-22T09:13:53;21.55;70.22
49489;SHT31;35382;51.484;11.476;2022-07-22T09:15:54;21.79;70.60
49489;SHT31;35382;51.484;11.476;2022-07-22T09:17:54;22.08;69.36
49489;SHT31;35382;51.484;11.476;2022-07-22T09:19:40;22.06;68.30
49489;SHT31;35382;51.484;11.476;2022-07-22T09:21:45;22.26;68.04
49489;SHT31;35382;51.484;11.476;2022-07-22T09:23:40;22.43;68.79
49489;SHT31;35382;51.484;11.476;2022-07-22T09:25:36;22.39;69.04
49489;SHT31;35382;51.484;11.476;2022-07-22T09:27:35;22.67;67.72
49489;SHT31;35382;51.484;11.476;2022-07-22T09:29:34;22.74;68.06
49489;SHT31;35382;51.484;11.476;2022-07-22T09:31:35;22.89;68.22
49489;SHT31;35382;51.484;11.476;2022-07-22T09:33:28;22.82;68.11
49489;SHT31;35382;51.484;11.476;2022-07-22T09:35:15;22.50;67.53
49489;SHT31;35382;51.484;11.476;2022-07-22T09:37:02;22.64;67.92
49489;SHT31;35382;51.484;11.476;2022-07-22T09:38:44;22.43;68.29
49489;SHT31;35382;51.484;11.476;2022-07-22T09:40:31;22.76;68.33
49489;SHT31;35382;51.484;11.476;2022-07-22T09:42:12;22.63;68.20
49489;SHT31;35382;51.484;11.476;2022-07-22T09:43:56;22.62;66.23
49489;SHT31;35382;51.484;11.476;2022-07-22T09:47:29;22.40;66.79
49489;SHT31;35382;51.484;11.476;2022-07-22T09:49:42;22.73;66.35
49489;SHT31;35382;51.484;11.476;2022-07-22T09:51:42;23.27;67.92
49489;SHT31;35382;51.484;11.476;2022-07-22T09:53:42;23.27;63.09
49489;SHT31;35382;51.484;11.476;2022-07-22T09:55:26;23.14;65.60
49489;SHT31;35382;51.484;11.476;2022-07-22T09:57:08;23.17;64.49
49489;SHT31;35382;51.484;11.476;2022-07-22T09:58:49;22.92;64.97
49489;SHT31;35382;51.484;11.476;2022-07-22T10:00:39;23.11;64.17
49489;SHT31;35382;51.484;11.476;2022-07-22T10:02:21;22.97;63.82
49489;SHT31;35382;51.484;11.476;2022-07-22T10:04:03;23.26;63.77
49489;SHT31;35382;51.484;11.476;2022-07-22T10:05:46;22.97;65.04
49489;SHT31;35382;51.484;11.476;2022-07-22T10:07:27;23.33;66.63
49489;SHT31;35382;51.484;11.476;2022-07-22T10:09:10;23.65;65.81
49489;SHT31;35382;51.484;11.476;2022-07-22T10:11:01;23.91;65.33
49489;SHT31;35382;51.484;11.476;2022-07-22T10:12:43;24.09;65.21
49489;SHT31;35382;51.484;11.476;2022-07-22T10:14:25;23.98;64.55
49489;SHT31;35382;51.484;11.476;2022-07-22T10:16:11;24.11;64.53
49489;SHT31;35382;51.484;11.476;2022-07-22T10:17:54;24.11;64.61
49489;SHT31;35382;51.484;11.476;2022-07-22T10:19:35;24.62;64.28
49489;SHT31;35382;51.484;11.476;2022-07-22T10:21:16;25.03;62.57
49489;SHT31;35382;51.484;11.476;2022-07-22T10:23:06;25.43;61.05
49489;SHT31;35382;51.484;11.476;2022-07-22T10:25:00;24.32;64.08
49489;SHT31;35382;51.484;11.476;2022-07-22T10:26:48;24.36;63.04
49489;SHT31;35382;51.484;11.476;2022-07-22T10:28:32;24.06;63.26
49489;SHT31;35382;51.484;11.476;2022-07-22T10:30:16;23.67;64.43
49489;SHT31;35382;51.484;11.476;2022-07-22T10:32:29;23.36;65.88
49489;SHT31;35382;51.484;11.476;2022-07-22T10:34:10;23.10;65.37
49489;SHT31;35382;51.484;11.476;2022-07-22T10:36:02;23.54;65.61
49489;SHT31;35382;51.484;11.476;2022-07-22T10:37:43;23.37;66.55
49489;SHT31;35382;51.484;11.476;2022-07-22T10:39:25;23.34;66.11
49489;SHT31;35382;51.484;11.476;2022-07-22T10:41:06;23.36;65.82
49489;SHT31;35382;51.484;11.476;2022-07-22T10:44:48;23.18;66.35
49489;SHT31;35382;51.484;11.476;2022-07-22T10:46:47;22.96;66.96
49489;SHT31;35382;51.484;11.476;2022-07-22T10:52:18;23.21;65.74